createdAt,value
2023-10-10T00:03:33.893Z,88.15
2023-10-10T00:10:01.550Z,87.76
2023-10-10T00:16:12.219Z,88.18
2023-10-10T00:23:19.993Z,88.11
2023-10-10T00:29:45.428Z,88.69
2023-10-10T00:37:01.876Z,88.51
2023-10-10T00:44:29.829Z,88.52
2023-10-10T00:50:49.638Z,88.34
2023-10-10T00:57:23.247Z,88.83
2023-10-10T01:04:07.448Z,88.29
2023-10-10T01:11:05.581Z,88.63
2023-10-10T01:17:41.408Z,88.59
2023-10-10T01:25:01.980Z,88.69
2023-10-10T01:31:54.293Z,88.62
2023-10-10T01:37:43.658Z,88.64
2023-10-10T01:43:26.377Z,88.52
2023-10-10T01:49:49.469Z,89.12
2023-10-10T02:03:40.834Z,88.39
2023-10-10T02:10:07.229Z,88.25
2023-10-10T02:16:12.352Z,87.80
2023-10-10T02:22:14.326Z,88.48
2023-10-10T02:29:05.420Z,88.17
2023-10-10T02:42:21.338Z,88.37
2023-10-10T02:48:34.007Z,88.18
2023-10-10T03:02:54.536Z,87.72
2023-10-10T03:08:45.800Z,87.97
2023-10-10T03:22:09.709Z,87.72
2023-10-10T03:28:10.921Z,87.92
2023-10-10T03:34:53.324Z,87.84
2023-10-10T03:41:28.790Z,87.98
2023-10-10T03:47:58.271Z,88.23
2023-10-10T03:54:17.973Z,87.75
2023-10-10T04:01:22.855Z,87.94
2023-10-10T04:07:53.053Z,87.77
2023-10-10T04:14:40.087Z,88.07
2023-10-10T04:20:46.341Z,87.87
2023-10-10T04:26:24.511Z,87.88
2023-10-10T04:31:58.971Z,88.30
2023-10-10T04:37:47.213Z,88.05
2023-10-10T04:44:11.064Z,88.14
2023-10-10T04:51:11.626Z,87.96
2023-10-10T04:58:06.116Z,87.88
2023-10-10T05:04:36.008Z,88.05
2023-10-10T05:10:56.810Z,87.82
2023-10-10T05:16:55.088Z,87.81
2023-10-10T05:23:29.516Z,87.71
2023-10-10T05:29:55.783Z,87.51
2023-10-10T05:36:32.900Z,87.50
2023-10-10T05:43:16.040Z,87.59
2023-10-10T05:49:42.236Z,87.80
2023-10-10T05:55:00.668Z,87.97
2023-10-10T06:00:43.343Z,87.74
2023-10-10T06:06:00.819Z,87.54
2023-10-10T06:12:18.935Z,87.24
2023-10-10T06:18:10.301Z,87.08
2023-10-10T06:24:03.975Z,86.97
2023-10-10T06:29:55.343Z,87.02
2023-10-10T06:35:40.030Z,87.01
2023-10-10T06:42:09.405Z,86.99
2023-10-10T06:47:56.003Z,87.30
2023-10-10T06:53:57.688Z,86.72
2023-10-10T07:00:13.980Z,86.37
2023-10-10T07:06:04.806Z,86.18
2023-10-10T07:11:41.727Z,86.12
2023-10-10T07:17:20.381Z,86.06
2023-10-10T07:23:14.749Z,86.06
2023-10-10T07:29:09.064Z,86.32
2023-10-10T07:35:29.755Z,86.09
2023-10-10T07:41:15.894Z,85.55
2023-10-10T07:47:54.611Z,85.08
2023-10-10T07:54:34.971Z,84.96
2023-10-10T08:00:56.532Z,84.62
2023-10-10T08:06:48.070Z,84.41
2023-10-10T08:13:26.098Z,84.13
2023-10-10T08:19:42.033Z,83.86
2023-10-10T08:26:29.632Z,83.98
2023-10-10T08:32:49.402Z,83.93
2023-10-10T08:39:37.239Z,83.57
2023-10-10T08:45:56.628Z,82.07
2023-10-10T08:52:10.467Z,82.65
2023-10-10T08:57:28.123Z,83.30
2023-10-10T09:02:59.616Z,83.20
2023-10-10T09:08:56.471Z,82.64
2023-10-10T09:15:48.015Z,82.65
2023-10-10T09:21:47.986Z,82.55
2023-10-10T09:28:05.704Z,82.53
2023-10-10T09:34:05.455Z,82.42
2023-10-10T09:39:43.097Z,81.90
2023-10-10T09:45:15.488Z,82.14
2023-10-10T09:50:51.959Z,81.94
2023-10-10T09:56:57.482Z,82.73
2023-10-10T10:02:42.214Z,82.82
2023-10-10T10:08:38.796Z,82.27
2023-10-10T10:15:09.017Z,82.40
2023-10-10T10:20:25.301Z,81.85
2023-10-10T10:25:53.745Z,81.58
2023-10-10T10:31:33.187Z,81.27
2023-10-10T10:37:24.550Z,81.96
2023-10-10T10:42:49.915Z,82.09
2023-10-10T10:49:00.380Z,82.03
2023-10-10T10:54:09.136Z,82.45
2023-10-10T10:59:14.352Z,82.78
2023-10-10T11:04:40.370Z,82.79
2023-10-10T11:10:09.565Z,82.76
2023-10-10T11:15:17.413Z,82.56
2023-10-10T11:20:39.286Z,82.77
2023-10-10T11:25:48.072Z,82.99
2023-10-10T11:31:00.242Z,82.97
2023-10-10T11:36:51.427Z,82.99
2023-10-10T11:41:55.995Z,82.64
2023-10-10T11:47:33.822Z,82.43
2023-10-10T11:53:21.378Z,82.75
2023-10-10T11:58:54.312Z,82.94
2023-10-10T12:04:09.783Z,82.89
2023-10-10T12:10:08.883Z,82.42
2023-10-10T12:22:18.300Z,81.56
2023-10-10T12:27:41.468Z,80.87
2023-10-10T12:33:09.203Z,80.35
2023-10-10T12:38:22.553Z,79.21
2023-10-10T12:43:38.770Z,78.86
2023-10-10T12:48:44.798Z,78.95
2023-10-10T12:53:47.483Z,79.20
2023-10-10T12:58:59.411Z,79.89
2023-10-10T13:04:31.389Z,79.59
2023-10-10T13:09:43.847Z,79.76
2023-10-10T13:14:54.453Z,79.92
2023-10-10T13:20:30.768Z,79.61
2023-10-10T13:25:47.916Z,79.42
2023-10-10T13:32:12.773Z,79.23
2023-10-10T13:37:37.930Z,78.08
2023-10-10T13:43:00.872Z,77.82
2023-10-10T13:53:16.249Z,78.22
2023-10-10T13:58:32.611Z,78.23
2023-10-10T14:03:46.745Z,77.95
2023-10-10T14:09:00.438Z,78.44
2023-10-10T14:14:12.188Z,78.68
2023-10-10T14:19:14.905Z,78.75
2023-10-10T14:24:17.498Z,78.36
2023-10-10T14:29:22.695Z,78.66
2023-10-10T14:34:27.783Z,78.89
2023-10-10T14:39:54.127Z,78.92
2023-10-10T14:44:56.846Z,78.68
2023-10-10T14:50:11.406Z,78.64
2023-10-10T14:55:29.112Z,78.74
2023-10-10T15:00:58.521Z,78.82
2023-10-10T15:06:10.315Z,79.34
2023-10-10T15:11:13.388Z,79.43
2023-10-10T15:16:16.309Z,79.99
2023-10-10T15:21:28.498Z,79.97
2023-10-10T15:26:32.719Z,80.17
2023-10-10T15:31:37.810Z,80.63
2023-10-10T15:36:46.103Z,80.72
2023-10-10T15:41:52.419Z,80.84
2023-10-10T15:46:59.927Z,80.96
2023-10-10T15:52:05.503Z,81.06
2023-10-10T15:57:10.761Z,80.97
2023-10-10T16:02:15.401Z,81.23
2023-10-10T16:07:19.580Z,81.37
2023-10-10T16:12:22.061Z,81.55
2023-10-10T16:17:25.219Z,81.23
2023-10-10T16:22:29.285Z,81.25
2023-10-10T16:27:34.602Z,81.33
2023-10-10T16:32:43.157Z,81.91
2023-10-10T16:37:51.016Z,82.35
2023-10-10T16:42:57.797Z,82.20
2023-10-10T16:48:09.843Z,82.16
2023-10-10T16:53:14.982Z,82.55
2023-10-10T16:58:17.874Z,82.86
2023-10-10T17:03:20.955Z,83.06
2023-10-10T17:08:31.213Z,83.02
2023-10-10T17:13:39.825Z,82.97
2023-10-10T17:18:54.054Z,83.55
2023-10-10T17:24:01.221Z,83.47
2023-10-10T17:29:05.929Z,83.71
2023-10-10T17:34:34.019Z,83.79
2023-10-10T17:39:39.429Z,84.13
2023-10-10T17:44:54.415Z,84.05
2023-10-10T17:50:00.638Z,84.40
2023-10-10T17:55:08.970Z,84.38
2023-10-10T18:00:36.304Z,84.56
2023-10-10T18:05:43.536Z,84.65
2023-10-10T18:10:48.813Z,84.99
2023-10-10T18:15:51.218Z,85.13
2023-10-10T18:20:55.928Z,85.18
2023-10-10T18:26:14.635Z,85.09
2023-10-10T18:31:26.270Z,85.05
2023-10-10T18:36:28.966Z,85.46
2023-10-10T18:41:33.437Z,85.20
2023-10-10T18:46:37.375Z,85.32
2023-10-10T18:51:40.167Z,85.53
2023-10-10T18:56:43.602Z,85.61
2023-10-10T19:01:49.660Z,85.69
2023-10-10T19:06:56.012Z,86.11
2023-10-10T19:11:59.108Z,86.22
2023-10-10T19:17:02.776Z,86.46
2023-10-10T19:22:09.091Z,86.43
2023-10-10T19:27:13.750Z,86.49
2023-10-10T19:32:19.838Z,86.68
2023-10-10T19:37:22.676Z,87.04
2023-10-10T19:42:28.023Z,87.25
2023-10-10T19:47:32.896Z,87.70
2023-10-10T19:52:41.694Z,87.62
2023-10-10T19:57:47.863Z,87.74
2023-10-10T20:02:58.021Z,87.88
2023-10-10T20:08:21.565Z,87.82
2023-10-10T20:13:23.767Z,88.00
2023-10-10T20:18:26.794Z,88.00
2023-10-10T20:23:28.829Z,88.12
2023-10-10T20:28:30.932Z,88.07
2023-10-10T20:33:34.842Z,88.25
2023-10-10T20:38:37.243Z,88.46
2023-10-10T20:43:48.530Z,88.74
2023-10-10T20:49:48.766Z,88.81
2023-10-10T20:55:19.990Z,88.98
2023-10-10T21:00:35.758Z,89.22
2023-10-10T21:05:44.717Z,89.40
2023-10-10T21:11:18.888Z,89.42
2023-10-10T21:16:48.654Z,89.48
2023-10-10T21:22:31.435Z,89.57
2023-10-10T21:27:35.766Z,89.63
2023-10-10T21:32:41.840Z,89.69
2023-10-10T21:37:44.924Z,89.69
2023-10-10T21:43:13.979Z,89.73
2023-10-10T21:48:47.277Z,89.93
2023-10-10T21:54:00.426Z,89.97
2023-10-10T21:59:08.102Z,89.99
2023-10-10T22:04:24.092Z,90.01
2023-10-10T22:09:33.917Z,90.17
2023-10-10T22:14:40.771Z,90.09
2023-10-10T22:19:58.579Z,90.35
2023-10-10T22:25:04.109Z,90.48
2023-10-10T22:30:15.070Z,90.46
2023-10-10T22:35:19.703Z,90.53
2023-10-10T22:40:26.655Z,90.75
2023-10-10T22:45:34.320Z,90.85
2023-10-10T22:50:38.036Z,90.95
2023-10-10T22:55:50.388Z,90.99
2023-10-10T23:00:58.204Z,91.29
2023-10-10T23:06:15.762Z,91.38
2023-10-10T23:11:19.450Z,91.37
2023-10-10T23:16:25.802Z,91.44
2023-10-10T23:21:44.780Z,91.72
2023-10-10T23:26:51.841Z,91.70
2023-10-10T23:32:09.954Z,91.71
2023-10-10T23:37:26.452Z,91.70
2023-10-10T23:42:37.304Z,91.95
2023-10-10T23:48:03.733Z,91.91
2023-10-10T23:53:25.666Z,92.00
2023-10-10T23:59:33.457Z,92.05
